Time;durP1;ratioP1;P1;durP2;ratioP2;P2;SDS_P1;SDS_P2;PMS_P1;PMS_P2;Temp;Humidity;BMP_temperature;BMP_pressure;BME280_temperature;BME280_humidity;BME280_pressure;Samples;Min_cycle;Max_cycle;Signal;HPM_P1;HPM_P2
2021/06/09 00:00:13;;;;;;;3.20;1.50;;;20.20;93.10;;;;;;4976116;28;20606;-88
2021/06/09 00:02:39;;;;;;;3.85;1.70;;;20.20;92.80;;;;;;4977130;28;20105;-87
2021/06/09 00:05:05;;;;;;;3.95;1.95;;;20.20;92.40;;;;;;4981852;28;20169;-87
2021/06/09 00:07:31;;;;;;;4.00;1.73;;;20.20;92.70;;;;;;4974670;28;20026;-88
2021/06/09 00:09:57;;;;;;;4.63;1.73;;;20.30;92.80;;;;;;4977232;28;20164;-87
2021/06/09 00:12:23;;;;;;;3.30;2.08;;;20.20;92.70;;;;;;4976353;28;20054;-87
2021/06/09 00:14:49;;;;;;;5.60;2.05;;;20.20;92.50;;;;;;4987431;28;20529;-87
2021/06/09 00:17:15;;;;;;;2.00;1.58;;;20.20;92.20;;;;;;4974510;28;20042;-88
2021/06/09 00:19:41;;;;;;;3.30;1.70;;;20.20;92.30;;;;;;4978194;28;20063;-88
2021/06/09 00:22:07;;;;;;;6.97;1.80;;;20.20;92.80;;;;;;4974587;28;20023;-88
2021/06/09 00:24:34;;;;;;;6.40;1.80;;;20.10;92.60;;;;;;4978275;28;20093;-87
2021/06/09 00:27:00;;;;;;;4.72;1.80;;;20.10;92.80;;;;;;4973638;28;20117;-88
2021/06/09 00:29:26;;;;;;;3.47;1.42;;;20.00;92.90;;;;;;4982304;28;20022;-87
2021/06/09 00:31:52;;;;;;;3.97;1.75;;;20.00;93.60;;;;;;4982850;28;20033;-88
2021/06/09 00:34:18;;;;;;;3.25;1.90;;;19.90;93.90;;;;;;4978978;28;20109;-88
2021/06/09 00:36:44;;;;;;;4.85;1.77;;;19.90;93.80;;;;;;4977878;28;20027;-87
2021/06/09 00:39:09;;;;;;;4.47;1.90;;;19.80;93.50;;;;;;4979557;28;20030;-88
2021/06/09 00:41:36;;;;;;;2.58;1.90;;;19.80;93.40;;;;;;4979742;28;20111;-88
2021/06/09 00:44:05;;;;;;;4.28;1.90;;;19.70;93.40;;;;;;4978180;28;20045;-88
2021/06/09 00:46:36;;;;;;;4.68;1.95;;;19.70;93.40;;;;;;4996408;28;20038;-88
2021/06/09 00:49:02;;;;;;;3.58;1.55;;;19.70;93.60;;;;;;4984318;28;20085;-87
2021/06/09 00:51:28;;;;;;;5.25;1.77;;;19.70;93.80;;;;;;4973659;28;20031;-88
2021/06/09 00:53:58;;;;;;;3.60;2.00;;;19.60;93.50;;;;;;4980941;28;20377;-87
2021/06/09 00:56:24;;;;;;;2.17;1.60;;;19.60;93.90;;;;;;4998058;28;20055;-87
2021/06/09 00:58:51;;;;;;;2.42;2.00;;;19.50;94.00;;;;;;4974191;28;20029;-87
2021/06/09 01:01:20;;;;;;;3.13;1.70;;;19.50;93.90;;;;;;4971240;28;20054;-88
2021/06/09 01:03:47;;;;;;;4.93;2.20;;;19.50;94.10;;;;;;4974218;28;20638;-87
2021/06/09 01:06:12;;;;;;;3.53;2.40;;;19.50;94.30;;;;;;4971361;28;20023;-87
2021/06/09 01:08:39;;;;;;;3.90;1.83;;;19.40;94.40;;;;;;4975086;28;20034;-87
2021/06/09 01:11:26;;;;;;;1.85;1.45;;;19.40;94.50;;;;;;4972776;28;20150;-87
2021/06/09 01:13:53;;;;;;;2.55;1.77;;;19.30;94.60;;;;;;4989687;28;20398;-87
2021/06/09 01:16:20;;;;;;;2.67;1.77;;;19.30;94.80;;;;;;4972647;28;20019;-87
2021/06/09 01:18:46;;;;;;;5.32;2.00;;;19.30;94.70;;;;;;4971489;28;20170;-87
2021/06/09 01:21:13;;;;;;;4.13;1.95;;;19.30;94.70;;;;;;4972903;28;20030;-87
2021/06/09 01:23:39;;;;;;;6.57;1.83;;;19.20;94.80;;;;;;4980875;28;20030;-88
2021/06/09 01:26:06;;;;;;;2.63;1.90;;;19.20;95.00;;;;;;4988056;28;20023;-88
2021/06/09 01:28:34;;;;;;;4.03;2.10;;;19.20;95.30;;;;;;4977541;28;20034;-88
2021/06/09 01:31:01;;;;;;;4.00;2.33;;;19.10;95.40;;;;;;4973751;28;20026;-88
2021/06/09 01:33:26;;;;;;;6.40;2.15;;;19.10;95.70;;;;;;4974419;28;20632;-88
2021/06/09 01:35:54;;;;;;;3.47;1.88;;;19.10;95.50;;;;;;4982807;28;20046;-87
2021/06/09 01:38:20;;;;;;;5.60;1.98;;;19.10;95.70;;;;;;4994551;28;20038;-87
2021/06/09 01:40:47;;;;;;;2.92;1.80;;;19.10;95.70;;;;;;4985667;28;20106;-89
2021/06/09 01:43:13;;;;;;;4.25;1.92;;;19.00;95.80;;;;;;4995071;28;20022;-87
2021/06/09 01:45:39;;;;;;;4.32;1.98;;;19.00;95.80;;;;;;4998583;28;20046;-87
2021/06/09 01:48:07;;;;;;;8.25;2.10;;;19.00;95.70;;;;;;5001178;28;20007;-88
2021/06/09 01:50:34;;;;;;;2.20;1.85;;;19.00;95.90;;;;;;5002572;28;20029;-87
2021/06/09 01:53:03;;;;;;;3.72;1.80;;;19.00;95.80;;;;;;5000888;28;20015;-88
2021/06/09 01:55:32;;;;;;;4.90;1.98;;;19.00;95.60;;;;;;4997169;28;20031;-89
2021/06/09 01:57:58;;;;;;;5.35;2.28;;;19.00;95.90;;;;;;5005362;28;20050;-88
2021/06/09 02:00:28;;;;;;;3.67;2.28;;;18.90;96.50;;;;;;5000045;28;20019;-88
2021/06/09 02:02:58;;;;;;;3.30;1.90;;;18.90;96.20;;;;;;4998228;28;20061;-87
2021/06/09 02:05:32;;;;;;;3.10;2.25;;;18.90;96.10;;;;;;4995670;28;20420;-88
2021/06/09 02:08:00;;;;;;;4.63;2.22;;;18.90;96.50;;;;;;4995256;28;20042;-88
2021/06/09 02:10:27;;;;;;;3.90;2.10;;;18.90;96.60;;;;;;4985533;28;20031;-87
2021/06/09 02:13:00;;;;;;;4.35;2.22;;;18.90;96.60;;;;;;4998138;28;20044;-88
2021/06/09 02:15:27;;;;;;;4.90;2.28;;;18.80;96.70;;;;;;4974933;28;20031;-88
2021/06/09 02:18:17;;;;;;;3.13;2.30;;;18.90;96.80;;;;;;4987700;28;20038;-87
2021/06/09 02:20:47;;;;;;;5.30;2.15;;;18.70;97.20;;;;;;4983024;28;20533;-88
2021/06/09 02:23:25;;;;;;;4.80;2.30;;;18.70;97.20;;;;;;4975469;28;20035;-88
2021/06/09 02:25:56;;;;;;;4.47;2.13;;;18.70;97.60;;;;;;4989070;28;20035;-88
2021/06/09 02:28:23;;;;;;;3.17;2.20;;;18.70;97.70;;;;;;4978448;28;20037;-88
2021/06/09 02:30:49;;;;;;;2.72;2.13;;;18.70;97.70;;;;;;4977536;28;20487;-88
2021/06/09 02:33:18;;;;;;;3.70;2.15;;;18.60;97.70;;;;;;4976357;28;20146;-88
2021/06/09 02:35:44;;;;;;;2.95;2.08;;;18.60;97.80;;;;;;4983348;28;20419;-88
2021/06/09 02:38:10;;;;;;;4.35;2.10;;;18.60;97.90;;;;;;4977317;28;20038;-88
2021/06/09 02:40:38;;;;;;;4.88;2.38;;;18.60;97.70;;;;;;4982954;28;20023;-88
2021/06/09 02:43:05;;;;;;;4.13;2.10;;;18.60;98.00;;;;;;4974875;28;20038;-88
2021/06/09 02:45:31;;;;;;;3.05;2.10;;;18.50;98.00;;;;;;4989416;28;20031;-88
2021/06/09 02:48:06;;;;;;;5.22;2.70;;;18.50;98.20;;;;;;4976662;28;20030;-88
2021/06/09 02:50:32;;;;;;;2.78;2.20;;;18.50;98.50;;;;;;4977138;28;20033;-88
2021/06/09 02:53:11;;;;;;;6.25;2.78;;;18.50;98.30;;;;;;4978380;28;20014;-88
2021/06/09 02:55:43;;;;;;;3.38;2.30;;;18.50;98.40;;;;;;4991027;28;20030;-87
2021/06/09 02:58:34;;;;;;;6.05;2.65;;;18.50;98.30;;;;;;4975635;28;20447;-88
2021/06/09 03:01:25;;;;;;;3.03;2.03;;;18.50;98.10;;;;;;4974763;28;20031;-87
2021/06/09 03:03:59;;;;;;;3.97;2.08;;;18.50;98.30;;;;;;4994904;28;20037;-88
2021/06/09 03:06:38;;;;;;;3.78;2.30;;;18.50;98.50;;;;;;4972780;28;20026;-88
2021/06/09 03:09:16;;;;;;;3.63;2.45;;;18.50;98.70;;;;;;4977088;28;20034;-88
2021/06/09 03:11:55;;;;;;;4.05;2.40;;;18.50;98.90;;;;;;4971588;28;20034;-88
2021/06/09 03:17:19;;;;;;;4.22;2.60;;;18.50;99.30;;;;;;4971260;28;20121;-88
2021/06/09 03:19:51;;;;;;;3.80;2.30;;;18.50;99.50;;;;;;4980180;28;20077;-88
2021/06/09 03:22:38;;;;;;;2.70;2.20;;;18.40;99.40;;;;;;4975926;28;20069;-88
2021/06/09 03:25:05;;;;;;;3.83;2.45;;;18.40;99.70;;;;;;4977569;28;20487;-88
2021/06/09 03:27:47;;;;;;;3.35;2.15;;;18.40;99.80;;;;;;4975851;28;20022;-88
2021/06/09 03:30:16;;;;;;;4.25;2.40;;;18.40;99.90;;;;;;4976647;28;20026;-87
2021/06/09 03:32:44;;;;;;;5.53;2.60;;;18.30;99.90;;;;;;4972125;28;20390;-88
2021/06/09 03:35:17;;;;;;;2.70;2.13;;;18.30;99.90;;;;;;4990030;28;20027;-88
2021/06/09 03:37:48;;;;;;;6.32;2.60;;;18.30;99.90;;;;;;4977256;28;20515;-88
2021/06/09 03:40:21;;;;;;;3.42;2.40;;;18.30;99.80;;;;;;4979292;28;20491;-87
2021/06/09 03:42:53;;;;;;;4.60;2.17;;;18.30;99.90;;;;;;4975206;28;20037;-88
2021/06/09 03:45:23;;;;;;;7.05;2.58;;;18.30;99.80;;;;;;4992450;28;20030;-88
2021/06/09 03:47:51;;;;;;;5.45;2.40;;;18.30;99.80;;;;;;4977688;28;20023;-88
2021/06/09 03:50:18;;;;;;;3.78;2.40;;;18.30;99.90;;;;;;4982890;28;20034;-88
2021/06/09 03:52:46;;;;;;;3.80;2.22;;;18.30;99.80;;;;;;4976741;28;20027;-88
2021/06/09 03:55:13;;;;;;;4.07;2.22;;;18.30;99.90;;;;;;4983315;28;20514;-87
2021/06/09 03:57:40;;;;;;;4.20;2.38;;;18.30;99.90;;;;;;4976710;28;20189;-88
2021/06/09 04:00:07;;;;;;;3.30;2.20;;;18.30;99.90;;;;;;4981595;28;20034;-88
2021/06/09 04:02:35;;;;;;;4.47;2.40;;;18.20;99.90;;;;;;4979779;28;20384;-88
2021/06/09 04:05:02;;;;;;;5.00;2.88;;;18.20;99.90;;;;;;4982213;28;20035;-89
2021/06/09 04:07:29;;;;;;;5.18;3.08;;;18.20;99.90;;;;;;4975252;28;20062;-88
2021/06/09 04:09:59;;;;;;;6.10;2.92;;;18.20;99.90;;;;;;4980039;28;20537;-88
2021/06/09 04:12:26;;;;;;;4.60;2.72;;;18.20;99.90;;;;;;4976442;28;20033;-88
2021/06/09 04:14:54;;;;;;;4.97;3.20;;;18.30;99.90;;;;;;4983165;28;20387;-88
2021/06/09 04:17:25;;;;;;;4.70;2.80;;;18.20;99.90;;;;;;4975496;28;20408;-89
2021/06/09 04:19:53;;;;;;;5.10;2.67;;;18.20;99.90;;;;;;4981767;28;20132;-88
2021/06/09 04:22:21;;;;;;;6.47;3.00;;;18.20;99.90;;;;;;4974484;28;20026;-88
2021/06/09 04:24:47;;;;;;;3.10;2.80;;;18.30;99.90;;;;;;4984205;28;20046;-88
2021/06/09 04:27:27;;;;;;;6.05;2.97;;;18.30;99.90;;;;;;4989525;28;20491;-88
2021/06/09 04:29:55;;;;;;;4.75;3.10;;;18.40;99.90;;;;;;4985027;28;20098;-88
2021/06/09 04:32:21;;;;;;;6.88;3.22;;;18.30;99.90;;;;;;4975086;28;20106;-88
2021/06/09 04:34:53;;;;;;;5.28;3.10;;;18.30;99.90;;;;;;4983342;28;20055;-87
2021/06/09 04:37:24;;;;;;;6.20;2.70;;;18.40;99.90;;;;;;4974524;28;20040;-88
2021/06/09 04:39:51;;;;;;;5.20;3.20;;;18.50;99.90;;;;;;4979117;28;20034;-87
2021/06/09 04:42:18;;;;;;;3.88;2.55;;;18.50;99.90;;;;;;4989815;28;20018;-88
2021/06/09 04:44:44;;;;;;;2.90;2.10;;;18.60;99.90;;;;;;4981410;28;20117;-88
2021/06/09 04:47:13;;;;;;;4.07;1.95;;;18.60;99.90;;;;;;4974518;28;20029;-89
2021/06/09 04:49:44;;;;;;;6.07;2.28;;;18.60;99.90;;;;;;4971997;28;20035;-89
2021/06/09 04:52:11;;;;;;;5.65;2.50;;;18.70;99.90;;;;;;4974247;28;20301;-89
2021/06/09 04:54:39;;;;;;;3.65;2.50;;;18.80;99.90;;;;;;4973535;28;20054;-91
2021/06/09 04:57:06;;;;;;;6.55;2.33;;;18.80;99.90;;;;;;4973490;28;20122;-90
2021/06/09 04:59:32;;;;;;;3.53;2.33;;;18.90;99.90;;;;;;4975979;28;20030;-89
2021/06/09 05:01:58;;;;;;;4.38;1.98;;;18.90;99.90;;;;;;4973096;28;20022;-88
2021/06/09 05:04:24;;;;;;;3.65;2.03;;;19.00;99.90;;;;;;4976416;28;20035;-90
2021/06/09 05:06:50;;;;;;;3.30;1.65;;;19.10;99.90;;;;;;4973762;28;20079;-90
2021/06/09 05:09:16;;;;;;;2.53;1.27;;;19.20;99.90;;;;;;4974058;28;20029;-89
2021/06/09 05:11:53;;;;;;;2.15;1.40;;;19.20;99.20;;;;;;4973366;28;20041;-89
2021/06/09 05:14:45;;;;;;;2.90;1.30;;;19.30;98.70;;;;;;4973684;28;20037;-88
2021/06/09 05:17:16;;;;;;;2.28;1.35;;;19.40;98.60;;;;;;4986675;28;20031;-89
2021/06/09 05:19:44;;;;;;;5.63;1.60;;;19.60;98.50;;;;;;4976299;28;20106;-91
2021/06/09 05:22:24;;;;;;;4.65;1.95;;;19.70;98.90;;;;;;4973902;28;20114;-90
2021/06/09 05:24:53;;;;;;;5.85;1.85;;;19.80;99.10;;;;;;4976786;28;20093;-90
2021/06/09 05:27:21;;;;;;;5.68;1.80;;;19.70;99.90;;;;;;4974504;28;21724;-91
2021/06/09 05:29:48;;;;;;;2.63;1.70;;;19.70;99.90;;;;;;4991106;28;20023;-89
2021/06/09 05:32:14;;;;;;;4.30;1.60;;;19.60;99.90;;;;;;4973466;28;20034;-89
2021/06/09 05:34:41;;;;;;;3.72;1.80;;;19.60;99.90;;;;;;4972722;28;20495;-90
2021/06/09 05:37:10;;;;;;;4.45;1.70;;;19.70;99.90;;;;;;4973096;28;20031;-90
2021/06/09 05:39:38;;;;;;;3.63;1.63;;;19.70;99.90;;;;;;4974268;28;20034;-91
2021/06/09 05:42:12;;;;;;;5.88;1.85;;;19.80;99.90;;;;;;4989014;28;20106;-92
2021/06/09 05:44:43;;;;;;;4.07;1.42;;;19.90;99.90;;;;;;4986887;28;20089;-89
2021/06/09 05:47:09;;;;;;;3.20;1.85;;;19.90;99.90;;;;;;4972874;28;20059;-89
2021/06/09 05:49:35;;;;;;;5.32;1.65;;;20.00;99.90;;;;;;4972754;28;20026;-90
2021/06/09 05:52:01;;;;;;;6.88;1.90;;;20.10;99.90;;;;;;4972352;28;20070;-91
2021/06/09 05:54:37;;;;;;;5.72;1.90;;;20.00;99.90;;;;;;4979553;28;20148;-89
2021/06/09 05:57:04;;;;;;;4.50;2.00;;;20.00;99.90;;;;;;4973668;28;20046;-90
2021/06/09 05:59:30;;;;;;;9.10;2.15;;;20.00;99.90;;;;;;4976558;28;20030;-89
2021/06/09 06:01:56;;;;;;;4.78;1.98;;;20.10;99.90;;;;;;4973142;28;20045;-89
2021/06/09 06:04:22;;;;;;;4.85;2.28;;;20.00;99.90;;;;;;4975670;28;20035;-88
2021/06/09 06:06:49;;;;;;;7.93;2.45;;;19.90;99.90;;;;;;4972742;28;20035;-91
2021/06/09 06:09:17;;;;;;;6.18;2.25;;;19.90;99.90;;;;;;4977564;28;20026;-88
2021/06/09 06:11:43;;;;;;;7.38;1.90;;;20.00;99.90;;;;;;4972746;28;20517;-76
2021/06/09 06:14:11;;;;;;;6.10;2.22;;;20.10;99.90;;;;;;4969247;28;20527;-76
2021/06/09 06:16:38;;;;;;;3.15;2.00;;;20.20;99.90;;;;;;4967159;28;20054;-76
2021/06/09 06:19:05;;;;;;;6.85;2.20;;;20.30;99.90;;;;;;4972656;28;20105;-76
2021/06/09 06:21:31;;;;;;;4.03;2.00;;;20.40;99.90;;;;;;4970918;28;20093;-76
2021/06/09 06:23:59;;;;;;;2.97;1.90;;;20.40;99.90;;;;;;4974341;28;20022;-77
2021/06/09 06:26:25;;;;;;;2.83;1.60;;;20.40;99.90;;;;;;4970777;28;20491;-76
2021/06/09 06:28:52;;;;;;;3.08;1.55;;;20.40;99.60;;;;;;4979458;28;20069;-76
2021/06/09 06:31:26;;;;;;;3.35;1.63;;;20.40;98.80;;;;;;4965416;28;20570;-75
2021/06/09 06:33:59;;;;;;;6.03;1.73;;;20.40;97.30;;;;;;4973259;28;20054;-75
2021/06/09 06:36:26;;;;;;;4.38;1.58;;;20.50;97.30;;;;;;4971935;28;20039;-75
2021/06/09 06:38:52;;;;;;;2.13;1.38;;;20.50;96.40;;;;;;4972702;28;20038;-75
2021/06/09 06:41:21;;;;;;;2.85;1.50;;;20.60;96.40;;;;;;4973072;28;20033;-75
2021/06/09 06:43:47;;;;;;;4.35;1.50;;;20.70;96.90;;;;;;4973001;28;20031;-76
2021/06/09 06:46:17;;;;;;;5.13;1.55;;;20.70;96.60;;;;;;4972930;28;20063;-75
2021/06/09 06:48:46;;;;;;;3.58;1.77;;;20.80;96.20;;;;;;4967269;28;20212;-76
2021/06/09 06:51:13;;;;;;;4.47;1.38;;;20.80;96.80;;;;;;4968240;28;20034;-75
2021/06/09 06:53:44;;;;;;;4.57;1.40;;;20.70;96.20;;;;;;4975362;28;20170;-75
2021/06/09 06:56:10;;;;;;;8.18;2.28;;;20.70;96.00;;;;;;4978369;28;20419;-75
2021/06/09 06:58:36;;;;;;;2.88;1.52;;;20.60;96.40;;;;;;4977193;28;20631;-76
2021/06/09 07:01:04;;;;;;;5.43;1.83;;;20.50;97.00;;;;;;4978604;28;20023;-75
2021/06/09 07:03:33;;;;;;;3.38;1.60;;;20.50;97.80;;;;;;4980124;28;20117;-76
2021/06/09 07:05:59;;;;;;;3.78;1.50;;;20.40;96.90;;;;;;4978839;28;20133;-75
2021/06/09 07:08:25;;;;;;;2.80;1.38;;;20.30;96.60;;;;;;4978842;28;20030;-75
2021/06/09 07:10:53;;;;;;;7.75;2.13;;;20.30;95.50;;;;;;4979779;28;20031;-75
2021/06/09 07:13:21;;;;;;;4.50;1.40;;;20.40;95.40;;;;;;4977959;28;20526;-75
2021/06/09 07:15:48;;;;;;;2.50;1.10;;;20.50;95.60;;;;;;4980480;28;20049;-75
2021/06/09 07:18:16;;;;;;;2.13;0.85;;;20.60;93.30;;;;;;4976513;28;20029;-75
2021/06/09 07:20:42;;;;;;;3.50;0.90;;;20.60;90.40;;;;;;4979444;28;20395;-75
2021/06/09 07:23:08;;;;;;;3.50;1.00;;;20.60;88.00;;;;;;4976964;28;20034;-75
2021/06/09 07:25:34;;;;;;;2.40;0.93;;;20.70;88.10;;;;;;4980993;28;20031;-75
2021/06/09 07:28:08;;;;;;;1.50;0.90;;;20.70;89.80;;;;;;4976147;28;20098;-75
2021/06/09 07:30:36;;;;;;;4.70;1.38;;;20.70;90.10;;;;;;4979446;28;20070;-75
2021/06/09 07:33:06;;;;;;;4.47;1.10;;;20.70;90.40;;;;;;4976111;28;20577;-75
2021/06/09 07:35:33;;;;;;;3.42;1.02;;;20.70;90.60;;;;;;4978876;28;20029;-75
2021/06/09 07:38:22;;;;;;;4.38;1.20;;;20.60;90.90;;;;;;4975998;28;20027;-75
2021/06/09 07:40:54;;;;;;;4.45;1.10;;;20.70;91.50;;;;;;4977024;28;20490;-75
2021/06/09 07:43:25;;;;;;;2.42;1.30;;;20.80;90.70;;;;;;4975442;28;20102;-75
2021/06/09 07:45:52;;;;;;;5.05;1.50;;;20.80;90.80;;;;;;4977693;28;20027;-75
2021/06/09 07:48:21;;;;;;;2.95;1.20;;;20.90;90.70;;;;;;4977311;28;20266;-75
2021/06/09 07:51:01;;;;;;;2.03;1.05;;;20.90;90.00;;;;;;4983367;28;20022;-76
2021/06/09 07:53:30;;;;;;;2.55;1.10;;;20.90;90.20;;;;;;4978528;28;20069;-75
2021/06/09 07:55:56;;;;;;;1.73;1.10;;;20.90;90.50;;;;;;4977722;28;20026;-75
2021/06/09 07:58:27;;;;;;;4.45;1.30;;;21.00;90.90;;;;;;4978027;28;20133;-75
2021/06/09 08:00:53;;;;;;;3.63;1.27;;;21.00;91.10;;;;;;4981243;28;20027;-75
2021/06/09 08:03:22;;;;;;;3.42;1.33;;;21.00;91.30;;;;;;4977208;28;20027;-75
2021/06/09 08:05:48;;;;;;;2.58;1.17;;;21.10;92.20;;;;;;4979116;28;20045;-75
2021/06/09 08:08:14;;;;;;;5.70;1.35;;;21.20;91.50;;;;;;4976597;28;20327;-75
2021/06/09 08:10:41;;;;;;;4.03;1.20;;;21.20;92.20;;;;;;4979381;28;20054;-75
2021/06/09 08:13:09;;;;;;;3.67;1.33;;;21.30;92.80;;;;;;4975141;28;20027;-75
2021/06/09 08:15:35;;;;;;;4.82;2.00;;;21.50;92.90;;;;;;4975280;28;20026;-75
2021/06/09 08:18:02;;;;;;;4.18;1.88;;;21.60;92.10;;;;;;4975006;28;20026;-75
2021/06/09 08:20:30;;;;;;;2.17;1.30;;;21.60;91.10;;;;;;4981360;28;20037;-75
2021/06/09 08:22:57;;;;;;;4.75;1.35;;;21.70;90.30;;;;;;4974640;28;20031;-75
2021/06/09 08:25:25;;;;;;;4.05;1.10;;;21.60;90.00;;;;;;4971901;28;20208;-75
2021/06/09 08:27:53;;;;;;;1.30;0.95;;;21.60;89.30;;;;;;4974519;28;20483;-75
2021/06/09 08:30:21;;;;;;;1.85;1.10;;;21.70;88.20;;;;;;4982327;28;20086;-75
2021/06/09 08:32:47;;;;;;;2.50;1.00;;;21.70;86.10;;;;;;4976431;28;20022;-78
2021/06/09 08:35:13;;;;;;;6.63;1.27;;;21.70;84.80;;;;;;4975524;28;20246;-78
2021/06/09 08:37:41;;;;;;;3.50;0.93;;;21.70;87.50;;;;;;4975452;28;20581;-78
2021/06/09 08:40:09;;;;;;;5.15;1.45;;;21.60;85.30;;;;;;4967783;28;20062;-76
2021/06/09 08:42:36;;;;;;;4.78;0.95;;;21.60;89.30;;;;;;4975299;28;20169;-78
2021/06/09 08:45:05;;;;;;;5.40;1.10;;;21.60;88.60;;;;;;4981469;28;20035;-79
2021/06/09 08:47:31;;;;;;;6.32;1.40;;;21.80;83.50;;;;;;4973887;28;20022;-78
2021/06/09 08:49:58;;;;;;;3.83;1.30;;;21.80;90.70;;;;;;4987285;28;20041;-78
2021/06/09 08:52:27;;;;;;;3.53;1.50;;;21.80;90.90;;;;;;4972977;28;20348;-78
2021/06/09 08:54:52;;;;;;;3.25;1.40;;;21.80;91.80;;;;;;4983091;28;20050;-78
2021/06/09 08:57:18;;;;;;;4.85;1.65;;;21.80;93.30;;;;;;4972128;28;20512;-76
2021/06/09 08:59:44;;;;;;;3.30;1.73;;;21.80;93.90;;;;;;4980604;28;20042;-77
2021/06/09 09:02:14;;;;;;;6.22;1.65;;;21.80;93.20;;;;;;4972115;28;20033;-76
2021/06/09 09:04:41;;;;;;;4.90;1.35;;;21.80;93.30;;;;;;4978294;28;20041;-77
2021/06/09 09:07:08;;;;;;;6.93;1.30;;;21.80;92.50;;;;;;4972075;28;20026;-77
2021/06/09 09:09:34;;;;;;;4.03;1.17;;;21.80;91.60;;;;;;4980290;28;20031;-77
2021/06/09 09:12:01;;;;;;;4.82;1.27;;;22.00;91.00;;;;;;4971388;28;20035;-77
2021/06/09 09:14:26;;;;;;;5.43;1.40;;;22.00;90.90;;;;;;4972324;28;20038;-76
2021/06/09 09:17:05;;;;;;;3.72;1.20;;;22.10;90.40;;;;;;4970821;28;20046;-77
2021/06/09 09:19:34;;;;;;;3.67;1.08;;;22.10;88.10;;;;;;4972066;28;20030;-76
2021/06/09 09:22:00;;;;;;;3.80;1.15;;;22.10;85.50;;;;;;4971585;28;20039;-76
2021/06/09 09:24:52;;;;;;;4.90;1.40;;;22.10;84.50;;;;;;4972858;28;20364;-75
2021/06/09 09:27:28;;;;;;;2.60;1.10;;;22.20;80.40;;;;;;4969267;28;20050;-71
2021/06/09 09:30:10;;;;;;;5.90;1.63;;;22.30;83.10;;;;;;4981123;28;20245;-75
2021/06/09 09:32:54;;;;;;;3.13;1.15;;;22.40;87.10;;;;;;4971131;28;20058;-74
2021/06/09 09:35:29;;;;;;;1.52;1.10;;;22.50;90.50;;;;;;4980553;28;20526;-74
2021/06/09 09:38:16;;;;;;;2.95;0.93;;;22.50;88.20;;;;;;4973839;28;20441;-75
2021/06/09 09:41:12;;;;;;;4.20;1.10;;;22.40;73.30;;;;;;4978062;28;20030;-74
2021/06/09 09:43:56;;;;;;;3.17;0.98;;;22.30;83.10;;;;;;4977816;28;20026;-74
2021/06/09 09:46:24;;;;;;;2.60;1.13;;;22.30;85.90;;;;;;4969525;28;20110;-74
2021/06/09 09:49:22;;;;;;;2.90;0.75;;;22.20;84.90;;;;;;4979288;28;20070;-74
2021/06/09 09:51:50;;;;;;;2.53;1.00;;;22.30;79.20;;;;;;4947711;28;20038;-74
2021/06/09 09:54:29;;;;;;;2.78;0.77;;;22.40;83.40;;;;;;4976745;28;20093;-74
2021/06/09 09:56:56;;;;;;;4.47;0.90;;;22.50;77.00;;;;;;4969745;28;20050;-74
2021/06/09 09:59:26;;;;;;;2.08;0.80;;;22.60;73.50;;;;;;4976305;28;20531;-74
2021/06/09 10:01:53;;;;;;;4.07;0.70;;;22.60;75.90;;;;;;4971215;28;20026;-74
2021/06/09 10:04:33;;;;;;;4.50;1.00;;;22.70;80.00;;;;;;4972500;28;20034;-74
2021/06/09 10:06:59;;;;;;;5.50;1.10;;;22.70;84.70;;;;;;4970957;28;20041;-74
2021/06/09 10:09:35;;;;;;;2.75;0.77;;;22.70;84.00;;;;;;4977609;28;20412;-74
2021/06/09 10:12:10;;;;;;;3.15;0.85;;;22.80;81.10;;;;;;4970725;28;20035;-73
2021/06/09 10:14:54;;;;;;;;;;;22.80;77.10;;;;;;4981509;28;20034;-74
2021/06/09 10:17:26;;;;;;;1.95;0.73;;;22.80;71.10;;;;;;4970954;28;19910;-74
2021/06/09 10:19:59;;;;;;;2.58;0.90;;;22.90;72.60;;;;;;4974253;28;20039;-74
2021/06/09 10:22:28;;;;;;;3.10;0.70;;;23.00;77.10;;;;;;4970708;28;20034;-74
2021/06/09 10:24:57;;;;;;;1.33;0.60;;;23.00;73.50;;;;;;4979619;28;20053;-73
2021/06/09 10:27:51;;;;;;;1.40;0.45;;;23.00;70.10;;;;;;4972749;28;20053;-73
2021/06/09 10:30:20;;;;;;;0.90;0.30;;;22.90;67.40;;;;;;4982833;28;20045;-73
2021/06/09 10:32:58;;;;;;;4.10;1.00;;;23.00;61.70;;;;;;4972930;28;20030;-74
2021/06/09 10:35:27;;;;;;;5.63;2.03;;;23.20;61.90;;;;;;4971842;28;20078;-73
2021/06/09 10:37:54;;;;;;;3.78;1.20;;;23.30;64.30;;;;;;4972900;28;20038;-73
2021/06/09 10:40:21;;;;;;;2.35;1.10;;;23.40;60.60;;;;;;4976526;28;20470;-73
2021/06/09 10:42:49;;;;;;;4.22;1.05;;;23.50;60.60;;;;;;4972479;28;20026;-73
2021/06/09 10:45:18;;;;;;;3.22;0.90;;;23.50;57.10;;;;;;4981383;28;20074;-74
2021/06/09 10:47:45;;;;;;;1.88;0.60;;;23.50;61.20;;;;;;4977661;28;20054;-74
2021/06/09 10:50:13;;;;;;;1.77;0.40;;;23.60;58.80;;;;;;4973701;28;20133;-74
2021/06/09 10:52:41;;;;;;;1.83;0.38;;;23.60;58.10;;;;;;4972855;28;20041;-75
2021/06/09 10:55:09;;;;;;;1.55;0.45;;;23.70;59.10;;;;;;4979279;28;20022;-75
2021/06/09 10:57:36;;;;;;;1.42;0.35;;;23.80;56.00;;;;;;4972675;28;20237;-75
2021/06/09 11:00:07;;;;;;;1.17;0.30;;;23.90;56.20;;;;;;4978949;28;20015;-75
2021/06/09 11:02:33;;;;;;;1.77;0.20;;;24.00;53.40;;;;;;4972357;28;20089;-75
2021/06/09 11:05:03;;;;;;;1.80;0.43;;;24.00;51.10;;;;;;4969090;28;20107;-75
2021/06/09 11:07:34;;;;;;;2.03;0.40;;;24.20;51.80;;;;;;4971013;28;20158;-74
2021/06/09 11:10:07;;;;;;;1.48;0.45;;;24.40;49.20;;;;;;4978643;28;20391;-75
2021/06/09 11:12:43;;;;;;;1.35;0.50;;;24.20;54.30;;;;;;4971773;28;20093;-75
2021/06/09 11:15:09;;;;;;;1.52;0.40;;;24.00;56.20;;;;;;4978780;28;20031;-75
2021/06/09 11:17:45;;;;;;;1.70;0.50;;;24.10;55.90;;;;;;4972229;28;20030;-88
2021/06/09 11:20:11;;;;;;;0.75;0.25;;;24.30;48.10;;;;;;4976191;28;20034;-74
2021/06/09 11:22:47;;;;;;;1.85;0.47;;;24.30;47.60;;;;;;4972206;28;20027;-74
2021/06/09 11:25:21;;;;;;;2.03;0.77;;;24.40;49.10;;;;;;4978172;28;20109;-75
2021/06/09 11:27:57;;;;;;;3.60;0.60;;;24.40;46.50;;;;;;4972363;28;20372;-74
2021/06/09 11:30:25;;;;;;;0.95;0.43;;;24.40;48.80;;;;;;4972517;28;20026;-74
2021/06/09 11:33:00;;;;;;;2.75;0.43;;;24.50;52.20;;;;;;4972471;28;20069;-74
2021/06/09 11:35:43;;;;;;;2.90;1.02;;;24.50;49.80;;;;;;4973778;28;20434;-75
2021/06/09 11:38:12;;;;;;;2.10;1.27;;;24.50;50.30;;;;;;4972475;28;20034;-74
2021/06/09 11:41:14;;;;;;;3.40;1.90;;;24.60;46.10;;;;;;4965350;28;20077;-74
2021/06/09 11:43:45;;;;;;;2.35;0.70;;;24.50;44.60;;;;;;4976509;28;20034;-74
2021/06/09 11:46:25;;;;;;;3.08;0.90;;;24.40;46.50;;;;;;4972626;28;20062;-73
2021/06/09 11:48:56;;;;;;;1.77;0.80;;;24.20;43.40;;;;;;4980878;28;20028;-75
2021/06/09 11:51:27;;;;;;;2.72;1.60;;;24.30;44.80;;;;;;4983231;28;20023;-73
2021/06/09 11:53:58;;;;;;;3.38;0.50;;;24.40;39.20;;;;;;4978508;28;20035;-74
2021/06/09 11:56:41;;;;;;;5.20;4.57;;;24.50;40.00;;;;;;4982793;28;20023;-74
2021/06/09 11:59:18;;;;;;;6.45;4.57;;;24.40;40.60;;;;;;4982260;28;20569;-74
2021/06/09 12:01:47;;;;;;;1.42;0.60;;;24.30;36.90;;;;;;4975030;28;20031;-74
2021/06/09 12:04:20;;;;;;;1.88;0.93;;;24.40;39.20;;;;;;4978216;28;20027;-74
2021/06/09 12:06:53;;;;;;;3.85;0.60;;;24.60;39.90;;;;;;4968668;28;20027;-74
2021/06/09 12:09:21;;;;;;;3.38;0.35;;;24.90;39.40;;;;;;4976339;28;20058;-74
2021/06/09 12:11:56;;;;;;;2.47;0.50;;;24.90;35.20;;;;;;4971573;28;20026;-74
2021/06/09 12:14:38;;;;;;;1.05;0.40;;;25.00;36.60;;;;;;4975717;28;20046;-74
2021/06/09 12:17:10;;;;;;;1.40;0.35;;;25.10;38.90;;;;;;4972969;28;20263;-74
2021/06/09 12:19:40;;;;;;;1.73;0.30;;;25.10;37.20;;;;;;4978581;28;20034;-74
2021/06/09 12:22:15;;;;;;;1.85;0.30;;;25.20;36.30;;;;;;4972322;28;20092;-74
2021/06/09 12:24:41;;;;;;;0.90;0.28;;;25.00;33.60;;;;;;4977258;28;20084;-74
2021/06/09 12:27:10;;;;;;;1.85;0.50;;;24.90;34.40;;;;;;4987500;28;20117;-74
2021/06/09 12:29:41;;;;;;;0.47;0.20;;;25.00;35.10;;;;;;4980794;28;20025;-74
2021/06/09 12:32:26;;;;;;;3.03;0.50;;;25.30;34.80;;;;;;4974016;28;20014;-74
2021/06/09 12:34:58;;;;;;;1.42;0.38;;;25.30;33.60;;;;;;4976878;28;20035;-74
2021/06/09 12:37:25;;;;;;;0.88;0.38;;;25.40;35.20;;;;;;4973082;28;20396;-74
2021/06/09 12:40:09;;;;;;;1.92;0.77;;;25.70;36.10;;;;;;4975725;28;20599;-74
2021/06/09 12:42:37;;;;;;;1.38;0.40;;;25.80;37.60;;;;;;4961801;28;20023;-74
2021/06/09 12:45:10;;;;;;;2.08;0.43;;;25.70;39.00;;;;;;4989462;28;20046;-74
2021/06/09 12:47:41;;;;;;;3.78;0.50;;;25.80;38.80;;;;;;4974407;28;20035;-74
2021/06/09 12:50:12;;;;;;;1.00;0.50;;;25.90;39.40;;;;;;4972334;28;20526;-74
2021/06/09 12:52:39;;;;;;;1.27;0.50;;;25.90;37.60;;;;;;4974495;28;20392;-75
2021/06/09 12:55:11;;;;;;;2.13;0.50;;;25.90;39.00;;;;;;4976636;28;20027;-74
2021/06/09 12:57:38;;;;;;;2.42;0.47;;;25.70;38.10;;;;;;4976855;28;20049;-74
2021/06/09 13:00:25;;;;;;;3.17;0.73;;;25.90;39.90;;;;;;4980616;28;20029;-74
2021/06/09 13:02:51;;;;;;;2.50;0.85;;;26.60;42.00;;;;;;4974663;28;20030;-75
2021/06/09 13:05:18;;;;;;;0.80;0.40;;;26.90;40.80;;;;;;4978005;28;20034;-74